createdAt,value
2018-01-15T00:02:07.564Z,22.85
2018-01-15T00:04:35.874Z,24.77
2018-01-15T00:07:03.432Z,24.30
2018-01-15T00:09:30.999Z,25.48
2018-01-15T00:11:58.545Z,24.90
2018-01-15T00:14:26.074Z,30.48
2018-01-15T00:16:54.391Z,23.65
2018-01-15T00:19:21.908Z,24.80
2018-01-15T00:21:50.215Z,28.85
2018-01-15T00:24:17.764Z,23.70
2018-01-15T00:26:46.161Z,25.00
2018-01-15T00:29:13.745Z,32.72
2018-01-15T00:31:41.640Z,22.55
2018-01-15T00:34:09.184Z,26.45
2018-01-15T00:36:37.572Z,23.02
2018-01-15T00:39:05.190Z,23.17
2018-01-15T00:41:32.860Z,22.40
2018-01-15T00:44:00.404Z,25.45
2018-01-15T00:46:28.091Z,25.05
2018-01-15T00:48:55.645Z,24.95
2018-01-15T00:51:23.186Z,26.45
2018-01-15T00:53:50.705Z,29.10
2018-01-15T00:56:18.228Z,27.83
2018-01-15T00:58:46.580Z,23.27
2018-01-15T01:01:14.979Z,23.27
2018-01-15T01:03:42.524Z,25.83
2018-01-15T01:06:10.079Z,25.33
2018-01-15T01:08:38.686Z,21.30
2018-01-15T01:11:06.244Z,25.67
2018-01-15T01:13:33.794Z,18.87
2018-01-15T01:16:01.594Z,25.65
2018-01-15T01:18:29.124Z,22.05
2018-01-15T01:20:56.659Z,23.80
2018-01-15T01:23:24.970Z,21.00
2018-01-15T01:25:52.546Z,20.10
2018-01-15T01:28:20.202Z,20.23
2018-01-15T01:30:47.766Z,22.17
2018-01-15T01:33:15.316Z,26.30
2018-01-15T01:35:42.839Z,24.00
2018-01-15T01:38:10.455Z,17.60
2018-01-15T01:40:37.979Z,23.40
2018-01-15T01:43:05.563Z,20.17
2018-01-15T01:45:33.091Z,20.48
2018-01-15T01:48:01.509Z,19.70
2018-01-15T01:50:29.030Z,21.80
2018-01-15T01:52:57.334Z,22.95
2018-01-15T01:55:24.897Z,22.02
2018-01-15T01:57:52.462Z,19.58
2018-01-15T02:00:20.027Z,25.12
2018-01-15T02:02:47.588Z,23.60
2018-01-15T02:05:15.131Z,22.73
2018-01-15T02:07:42.702Z,21.17
2018-01-15T02:10:10.275Z,26.00
2018-01-15T02:12:37.820Z,19.77
2018-01-15T02:15:05.363Z,20.20
2018-01-15T02:17:32.947Z,21.37
2018-01-15T02:20:00.508Z,24.10
2018-01-15T02:22:28.063Z,21.05
2018-01-15T02:24:55.608Z,21.02
2018-01-15T02:27:23.885Z,19.95
2018-01-15T02:29:51.432Z,23.35
2018-01-15T02:32:19.724Z,22.95
2018-01-15T02:34:47.397Z,21.30
2018-01-15T02:37:14.921Z,20.92
2018-01-15T02:39:42.465Z,19.00
2018-01-15T02:42:09.994Z,18.52
2018-01-15T02:44:37.520Z,20.83
2018-01-15T02:47:05.806Z,21.27
2018-01-15T02:49:33.378Z,22.23
2018-01-15T02:52:00.933Z,20.45
2018-01-15T02:54:28.449Z,22.62
2018-01-15T02:56:56.071Z,17.55
2018-01-15T02:59:23.588Z,20.70
2018-01-15T03:01:51.884Z,21.77
2018-01-15T03:04:19.471Z,22.42
2018-01-15T03:06:47.005Z,20.58
2018-01-15T03:09:15.288Z,21.42
2018-01-15T03:11:42.843Z,18.87
2018-01-15T03:14:10.417Z,19.75
2018-01-15T03:16:37.957Z,20.88
2018-01-15T03:19:06.289Z,20.50
2018-01-15T03:21:33.932Z,19.17
2018-01-15T03:24:01.436Z,18.10
2018-01-15T03:26:29.259Z,19.50
2018-01-15T03:28:56.847Z,18.98
2018-01-15T03:31:25.258Z,19.98
2018-01-15T03:33:53.569Z,19.85
2018-01-15T03:36:21.355Z,20.98
2018-01-15T03:38:48.870Z,20.30
2018-01-15T03:41:17.174Z,24.83
2018-01-15T03:43:44.731Z,25.45
2018-01-15T03:46:12.253Z,21.10
2018-01-15T03:48:39.787Z,17.67
2018-01-15T03:51:07.326Z,21.77
2018-01-15T03:53:34.862Z,20.08
2018-01-15T03:56:02.445Z,29.10
2018-01-15T03:58:29.993Z,21.35
2018-01-15T04:00:57.543Z,18.42
2018-01-15T04:03:25.225Z,19.10
2018-01-15T04:05:52.769Z,20.27
2018-01-15T04:08:20.344Z,18.58
2018-01-15T04:10:47.973Z,16.08
2018-01-15T04:13:16.319Z,22.52
2018-01-15T04:15:43.830Z,16.95
2018-01-15T04:18:11.382Z,24.42
2018-01-15T04:20:38.953Z,21.95
2018-01-15T04:23:06.477Z,19.75
2018-01-15T04:25:34.080Z,21.33
2018-01-15T04:28:01.645Z,17.75
2018-01-15T04:30:29.162Z,21.85
2018-01-15T04:32:57.467Z,21.67
2018-01-15T04:35:24.993Z,20.12
2018-01-15T04:37:52.590Z,19.65
2018-01-15T04:40:20.112Z,20.58
2018-01-15T04:42:47.723Z,20.45
2018-01-15T04:45:15.267Z,21.05
2018-01-15T04:47:42.838Z,20.20
2018-01-15T04:50:10.363Z,20.50
2018-01-15T04:52:38.716Z,18.33
2018-01-15T04:55:06.251Z,20.20
2018-01-15T04:57:33.801Z,18.98
2018-01-15T05:00:01.340Z,21.42
2018-01-15T05:02:28.887Z,18.30
2018-01-15T05:04:57.189Z,17.62
2018-01-15T05:07:24.696Z,26.00
2018-01-15T05:09:52.221Z,21.92
2018-01-15T05:12:19.736Z,22.00
2018-01-15T05:14:47.327Z,22.05
2018-01-15T05:17:14.855Z,22.50
2018-01-15T05:19:42.392Z,21.85
2018-01-15T05:22:10.008Z,23.77
2018-01-15T05:24:37.551Z,26.10
2018-01-15T05:27:05.840Z,21.50
2018-01-15T05:29:33.416Z,22.70
2018-01-15T05:32:00.974Z,22.37
2018-01-15T05:34:28.487Z,22.67
2018-01-15T05:36:56.037Z,17.95
2018-01-15T05:39:23.656Z,23.77
2018-01-15T05:41:51.212Z,23.02
2018-01-15T05:44:18.772Z,19.60
2018-01-15T05:46:46.336Z,18.33
2018-01-15T05:49:13.852Z,22.75
2018-01-15T05:51:42.179Z,19.48
2018-01-15T05:54:09.743Z,19.30
2018-01-15T05:56:37.278Z,17.37
2018-01-15T05:59:05.568Z,25.17
2018-01-15T06:01:33.147Z,21.62
2018-01-15T06:04:00.671Z,18.98
2018-01-15T06:06:29.075Z,21.55
2018-01-15T06:08:56.633Z,26.35
2018-01-15T06:11:24.169Z,24.90
2018-01-15T06:13:52.478Z,17.65
2018-01-15T06:16:20.013Z,19.95
2018-01-15T06:18:48.321Z,19.50
2018-01-15T06:21:16.257Z,17.98
2018-01-15T06:23:44.612Z,16.92
2018-01-15T06:26:12.556Z,20.40
2018-01-15T06:28:40.932Z,20.42
2018-01-15T06:31:08.887Z,22.10
2018-01-15T06:33:36.728Z,22.87
2018-01-15T06:36:05.220Z,18.08
2018-01-15T06:38:32.760Z,20.12
2018-01-15T06:41:01.064Z,19.60
2018-01-15T06:43:28.624Z,23.65
2018-01-15T06:45:56.133Z,20.40
2018-01-15T06:48:23.674Z,20.50
2018-01-15T06:50:51.228Z,23.23
2018-01-15T06:53:18.751Z,24.30
2018-01-15T06:55:47.052Z,22.50
2018-01-15T06:58:14.624Z,20.33
2018-01-15T07:00:42.286Z,22.08
2018-01-15T07:03:09.945Z,22.00
2018-01-15T07:05:37.504Z,29.05
2018-01-15T07:08:05.394Z,22.40
2018-01-15T07:10:33.065Z,22.17
2018-01-15T07:13:00.613Z,19.77
2018-01-15T07:15:28.132Z,22.25
2018-01-15T07:17:55.747Z,21.23
2018-01-15T07:20:23.420Z,18.80
2018-01-15T07:22:50.961Z,19.70
2018-01-15T07:25:18.875Z,27.73
2018-01-15T07:27:47.292Z,22.13
2018-01-15T07:30:14.807Z,21.05
2018-01-15T07:32:43.103Z,22.20
2018-01-15T07:35:10.795Z,21.05
2018-01-15T07:37:38.455Z,21.65
2018-01-15T07:40:05.992Z,22.37
2018-01-15T07:42:33.764Z,21.12
2018-01-15T07:45:01.332Z,26.20
2018-01-15T07:47:28.849Z,22.48
2018-01-15T07:49:56.395Z,22.67
2018-01-15T07:52:25.004Z,24.10
2018-01-15T07:54:53.554Z,19.00
2018-01-15T07:57:21.089Z,23.17
2018-01-15T07:59:48.864Z,22.87
2018-01-15T08:02:16.528Z,20.95
2018-01-15T08:04:44.299Z,20.85
2018-01-15T08:07:11.835Z,20.23
2018-01-15T08:09:39.500Z,21.60
2018-01-15T08:12:07.114Z,22.67
2018-01-15T08:14:35.744Z,20.98
2018-01-15T08:17:03.266Z,19.23
2018-01-15T08:19:31.967Z,24.17
2018-01-15T08:21:59.563Z,19.15
2018-01-15T08:24:27.330Z,21.77
2018-01-15T08:26:55.088Z,25.83
2018-01-15T08:29:22.746Z,23.75
2018-01-15T08:31:50.428Z,21.33
2018-01-15T08:34:18.186Z,21.12
2018-01-15T08:36:45.743Z,26.12
2018-01-15T08:39:13.691Z,26.00
2018-01-15T08:41:41.233Z,24.77
2018-01-15T08:44:09.712Z,22.23
2018-01-15T08:46:38.117Z,19.62
2018-01-15T08:49:05.747Z,31.00
2018-01-15T08:51:34.066Z,25.02
2018-01-15T08:54:01.707Z,21.60
2018-01-15T08:56:30.116Z,22.50
2018-01-15T08:58:57.885Z,20.92
2018-01-15T09:01:25.536Z,25.02
2018-01-15T09:03:53.513Z,25.95
2018-01-15T09:06:21.319Z,24.15
2018-01-15T09:08:49.043Z,22.98
2018-01-15T09:11:17.066Z,24.67
2018-01-15T09:13:44.593Z,43.17
2018-01-15T09:16:12.469Z,27.15
2018-01-15T09:18:40.246Z,23.67
2018-01-15T09:21:08.294Z,21.17
2018-01-15T09:23:36.546Z,28.83
2018-01-15T09:26:04.226Z,26.15
2018-01-15T09:28:31.926Z,25.80
2018-01-15T09:30:59.859Z,22.67
2018-01-15T09:33:27.418Z,24.58
2018-01-15T09:35:54.965Z,28.27
2018-01-15T09:38:22.566Z,23.62
2018-01-15T09:40:50.141Z,25.98
2018-01-15T09:43:17.824Z,23.35
2018-01-15T09:45:45.819Z,26.02
2018-01-15T09:48:13.357Z,28.87
2018-01-15T09:50:41.652Z,25.60
2018-01-15T09:53:09.774Z,20.20
2018-01-15T09:55:37.351Z,23.92
2018-01-15T09:58:04.888Z,24.08
2018-01-15T10:00:32.411Z,29.83
2018-01-15T10:02:59.955Z,24.42
2018-01-15T10:05:27.637Z,24.30
2018-01-15T10:07:55.293Z,23.42
2018-01-15T10:10:23.386Z,27.50
2018-01-15T10:12:51.338Z,27.08
2018-01-15T10:15:18.960Z,23.55
2018-01-15T10:17:46.566Z,23.13
2018-01-15T10:20:14.133Z,23.83
2018-01-15T10:22:41.878Z,25.30
2018-01-15T10:25:09.766Z,29.33
2018-01-15T10:27:37.417Z,28.23
2018-01-15T10:30:04.994Z,26.60
2018-01-15T10:32:32.775Z,27.25
2018-01-15T10:35:00.486Z,24.50
2018-01-15T10:37:29.076Z,24.58
2018-01-15T10:39:57.426Z,24.12
2018-01-15T10:42:25.346Z,24.80
2018-01-15T10:44:53.120Z,24.60
2018-01-15T10:47:21.471Z,25.07
2018-01-15T10:49:49.910Z,25.97
2018-01-15T10:52:17.537Z,26.93
2018-01-15T10:54:45.092Z,22.58
2018-01-15T10:57:12.746Z,22.60
2018-01-15T10:59:40.305Z,24.83
2018-01-15T11:02:08.099Z,27.57
2018-01-15T11:04:35.641Z,27.05
2018-01-15T11:07:03.156Z,24.40
2018-01-15T11:09:30.771Z,22.63
2018-01-15T11:11:58.409Z,23.00
2018-01-15T11:14:25.969Z,22.62
2018-01-15T11:16:53.592Z,25.07
2018-01-15T11:19:21.147Z,23.30
2018-01-15T11:21:48.693Z,29.12
2018-01-15T11:24:16.243Z,26.73
2018-01-15T11:26:43.861Z,28.05
2018-01-15T11:29:12.140Z,25.92
2018-01-15T11:31:40.313Z,32.60
2018-01-15T11:34:07.870Z,25.40
2018-01-15T11:36:35.558Z,26.63
2018-01-15T11:39:03.143Z,29.12
2018-01-15T11:41:30.686Z,25.65
2018-01-15T11:43:58.245Z,26.53
2018-01-15T11:46:25.774Z,26.10
2018-01-15T11:48:54.208Z,27.67
2018-01-15T11:51:21.986Z,28.40
2018-01-15T11:53:49.688Z,30.95
2018-01-15T11:56:17.992Z,28.03
2018-01-15T11:58:45.584Z,26.08
2018-01-15T12:01:13.158Z,24.70
2018-01-15T12:03:40.677Z,26.43
2018-01-15T12:06:08.275Z,30.03
2018-01-15T12:08:36.937Z,23.43
2018-01-15T12:11:04.492Z,24.27
2018-01-15T12:13:32.068Z,26.03
2018-01-15T12:15:59.629Z,24.80
2018-01-15T12:18:27.348Z,25.87
2018-01-15T12:20:55.691Z,27.73
2018-01-15T12:23:24.403Z,24.17
2018-01-15T12:25:52.943Z,26.40
2018-01-15T12:28:20.598Z,31.13
2018-01-15T12:30:48.418Z,24.93
2018-01-15T12:33:16.835Z,24.53
2018-01-15T12:35:44.404Z,26.37
2018-01-15T12:38:11.966Z,24.42
2018-01-15T12:40:39.521Z,30.27
2018-01-15T12:43:07.085Z,26.93
2018-01-15T12:45:34.800Z,25.03
2018-01-15T12:48:02.408Z,25.80
2018-01-15T12:50:30.392Z,25.50
2018-01-15T12:52:58.361Z,31.63
2018-01-15T12:55:25.913Z,27.77
2018-01-15T12:57:54.352Z,27.40
2018-01-15T13:00:22.178Z,28.45
2018-01-15T13:02:50.101Z,25.33
2018-01-15T13:05:18.684Z,23.87
2018-01-15T13:07:59.125Z,26.17
2018-01-15T13:10:26.738Z,26.90
2018-01-15T13:12:54.300Z,26.50
2018-01-15T13:15:22.275Z,26.10
2018-01-15T13:17:50.156Z,25.93
2018-01-15T13:20:19.333Z,26.60
2018-01-15T13:22:47.028Z,27.87
2018-01-15T13:25:14.821Z,28.03
2018-01-15T13:27:42.770Z,29.37
2018-01-15T13:30:10.426Z,26.17
2018-01-15T13:32:38.037Z,28.20
2018-01-15T13:35:06.438Z,27.20
2018-01-15T13:37:33.961Z,29.40
2018-01-15T13:40:02.283Z,28.67
2018-01-15T13:42:29.849Z,23.00
2018-01-15T13:44:57.586Z,23.98
2018-01-15T13:47:25.991Z,27.43
2018-01-15T13:49:53.561Z,23.60
2018-01-15T13:52:21.095Z,27.87
2018-01-15T13:54:48.778Z,23.50
2018-01-15T13:57:16.354Z,22.93
2018-01-15T13:59:43.978Z,24.50
2018-01-15T14:02:11.793Z,25.35
2018-01-15T14:04:39.387Z,23.40
2018-01-15T14:07:07.847Z,23.27
2018-01-15T14:09:35.588Z,25.30
2018-01-15T14:12:03.348Z,26.07
2018-01-15T14:14:31.159Z,25.43
2018-01-15T14:16:59.583Z,23.58
2018-01-15T14:19:27.125Z,25.20
2018-01-15T14:21:54.778Z,30.17
2018-01-15T14:24:22.305Z,27.65
2018-01-15T14:26:49.946Z,26.50
2018-01-15T14:29:17.796Z,24.92
2018-01-15T14:31:45.344Z,29.20
2018-01-15T14:34:12.875Z,24.00
2018-01-15T14:36:41.292Z,25.17
2018-01-15T14:39:08.826Z,27.77
2018-01-15T14:41:37.208Z,32.22
2018-01-15T14:44:05.002Z,31.45
2018-01-15T14:46:32.841Z,29.50
2018-01-15T14:49:01.132Z,28.00
2018-01-15T14:51:28.667Z,26.10
2018-01-15T14:53:56.209Z,24.98
2018-01-15T14:56:23.933Z,27.73
2018-01-15T14:58:51.604Z,27.90
2018-01-15T15:01:19.152Z,28.50
2018-01-15T15:03:46.711Z,26.83
2018-01-15T15:06:14.552Z,24.90
2018-01-15T15:08:42.158Z,29.63
2018-01-15T15:11:09.741Z,29.10
2018-01-15T15:13:37.274Z,25.93
2018-01-15T15:16:04.831Z,30.62
2018-01-15T15:18:32.377Z,24.25
2018-01-15T15:20:59.945Z,29.10
2018-01-15T15:23:27.522Z,23.33
2018-01-15T15:25:55.051Z,31.20
2018-01-15T15:28:22.585Z,25.07
2018-01-15T15:30:50.899Z,32.45
2018-01-15T15:33:18.980Z,28.67
2018-01-15T15:35:46.532Z,25.60
2018-01-15T15:38:14.192Z,28.00
2018-01-15T15:40:41.729Z,29.97
2018-01-15T15:43:10.031Z,29.30
2018-01-15T15:45:37.547Z,28.77
2018-01-15T15:48:05.154Z,28.42
2018-01-15T15:50:32.722Z,30.60
2018-01-15T15:53:00.392Z,24.48
2018-01-15T15:55:27.937Z,27.80
2018-01-15T15:57:55.453Z,30.23
2018-01-15T16:00:23.063Z,29.23
2018-01-15T16:02:50.704Z,23.60
2018-01-15T16:05:18.367Z,23.73
2018-01-15T16:07:46.264Z,26.07
2018-01-15T16:10:13.913Z,22.57
2018-01-15T16:12:41.468Z,27.00
2018-01-15T16:15:09.007Z,23.05
2018-01-15T16:17:37.433Z,24.30
2018-01-15T16:20:04.985Z,29.30
2018-01-15T16:22:33.464Z,22.47
2018-01-15T16:25:01.041Z,19.47
2018-01-15T16:27:28.568Z,25.07
2018-01-15T16:29:56.627Z,25.27
2018-01-15T16:32:24.930Z,24.10
2018-01-15T16:34:52.472Z,21.80
2018-01-15T16:37:20.016Z,23.10
2018-01-15T16:39:48.321Z,22.23
2018-01-15T16:42:15.843Z,23.93
2018-01-15T16:44:43.404Z,25.10
2018-01-15T16:47:11.705Z,20.70
2018-01-15T16:49:40.035Z,20.97
2018-01-15T16:52:07.824Z,21.95
2018-01-15T16:54:35.395Z,18.52
2018-01-15T16:57:03.765Z,23.48
2018-01-15T16:59:31.356Z,23.27
2018-01-15T17:01:59.745Z,23.05
2018-01-15T17:04:27.528Z,22.93
2018-01-15T17:06:55.107Z,21.67
2018-01-15T17:09:22.650Z,21.53
2018-01-15T17:11:50.318Z,20.05
2018-01-15T17:14:17.916Z,20.03
2018-01-15T17:16:45.525Z,27.05
2018-01-15T17:19:14.105Z,18.95
2018-01-15T17:21:41.708Z,18.13
2018-01-15T17:24:09.234Z,21.67
2018-01-15T17:26:36.775Z,19.27
2018-01-15T17:29:05.066Z,21.83
2018-01-15T17:31:32.606Z,21.35
2018-01-15T17:34:00.901Z,22.53
2018-01-15T17:36:28.437Z,17.43
2018-01-15T17:38:56.908Z,22.30
2018-01-15T17:41:24.441Z,17.30
2018-01-15T17:43:51.951Z,20.17
2018-01-15T17:46:20.350Z,22.57
2018-01-15T17:48:47.876Z,19.23
2018-01-15T17:51:16.178Z,23.60
2018-01-15T17:53:44.475Z,22.17
2018-01-15T17:56:12.048Z,21.43
2018-01-15T17:58:39.573Z,18.50
2018-01-15T18:01:07.160Z,20.50
2018-01-15T18:03:34.708Z,18.77
2018-01-15T18:06:02.233Z,20.90
2018-01-15T18:08:29.980Z,22.50
2018-01-15T18:10:57.607Z,18.47
2018-01-15T18:13:25.181Z,19.15
2018-01-15T18:15:52.741Z,18.50
2018-01-15T18:18:20.382Z,18.67
2018-01-15T18:20:47.945Z,20.17
2018-01-15T18:23:15.627Z,17.07
2018-01-15T18:25:43.162Z,19.05
2018-01-15T18:28:10.733Z,22.42
2018-01-15T18:30:38.279Z,20.75
2018-01-15T18:33:05.948Z,17.40
2018-01-15T18:35:33.550Z,16.98
2018-01-15T18:38:01.080Z,19.53
2018-01-15T18:40:28.648Z,19.73
2018-01-15T18:42:56.190Z,21.67
2018-01-15T18:45:23.724Z,16.27
2018-01-15T18:47:51.323Z,17.47
2018-01-15T18:50:18.850Z,14.77
2018-01-15T18:52:47.267Z,14.87
2018-01-15T18:55:14.800Z,12.30
2018-01-15T18:57:42.343Z,15.90
2018-01-15T19:00:10.992Z,18.87
2018-01-15T19:02:39.266Z,17.17
2018-01-15T19:05:06.928Z,19.53
2018-01-15T19:07:34.707Z,18.70
2018-01-15T19:10:03.163Z,18.20
2018-01-15T19:12:30.707Z,15.00
2018-01-15T19:14:58.274Z,15.10
2018-01-15T19:17:26.061Z,22.58
2018-01-15T19:19:54.558Z,14.82
2018-01-15T19:22:22.683Z,13.23
2018-01-15T19:24:50.250Z,15.33
2018-01-15T19:27:18.147Z,13.40
2018-01-15T19:29:47.010Z,16.80
2018-01-15T19:32:15.660Z,13.97
2018-01-15T19:34:50.643Z,15.20
2018-01-15T19:37:26.041Z,13.70
2018-01-15T19:39:56.127Z,13.70
2018-01-15T19:42:24.794Z,16.50
2018-01-15T19:44:58.452Z,13.98
2018-01-15T19:47:31.789Z,17.53
2018-01-15T19:50:06.202Z,14.60
2018-01-15T19:52:40.436Z,18.80
2018-01-15T19:55:15.229Z,13.77
2018-01-15T19:57:49.545Z,12.90
2018-01-15T20:00:22.878Z,12.20
2018-01-15T20:02:57.133Z,14.60
2018-01-15T20:05:31.370Z,13.65
2018-01-15T20:08:04.948Z,12.97
2018-01-15T20:10:39.406Z,11.63
2018-01-15T20:13:08.717Z,14.33
2018-01-15T20:15:37.414Z,18.90
2018-01-15T20:18:05.913Z,12.97
2018-01-15T20:20:33.457Z,13.63
2018-01-15T20:23:01.019Z,10.30
2018-01-15T20:25:28.604Z,12.15
2018-01-15T20:27:56.150Z,16.30
2018-01-15T20:30:23.727Z,18.33
2018-01-15T20:32:51.576Z,17.70
2018-01-15T20:35:19.232Z,16.87
2018-01-15T20:37:46.820Z,15.53
2018-01-15T20:40:14.469Z,14.03
2018-01-15T20:42:42.031Z,14.38
2018-01-15T20:45:09.863Z,14.60
2018-01-15T20:47:38.195Z,13.87
2018-01-15T20:50:05.834Z,13.33
2018-01-15T20:52:33.396Z,16.00
2018-01-15T20:55:00.921Z,14.13
2018-01-15T20:57:29.221Z,14.10
2018-01-15T20:59:56.736Z,13.03
2018-01-15T21:02:24.562Z,13.50
2018-01-15T21:04:52.084Z,12.37
2018-01-15T21:07:20.391Z,12.53
2018-01-15T21:09:47.900Z,12.20
2018-01-15T21:12:15.454Z,13.17
2018-01-15T21:14:43.081Z,13.20
2018-01-15T21:17:10.624Z,10.17
2018-01-15T21:19:38.305Z,11.20
2018-01-15T21:22:06.376Z,11.67
2018-01-15T21:24:34.144Z,9.10
2018-01-15T21:27:02.010Z,8.60
2018-01-15T21:29:29.566Z,10.90
2018-01-15T21:31:57.085Z,8.50
2018-01-15T21:34:24.672Z,6.80
2018-01-15T21:36:52.254Z,6.03
2018-01-15T21:39:19.831Z,5.00
2018-01-15T21:41:47.482Z,7.27
2018-01-15T21:44:15.021Z,5.87
2018-01-15T21:46:42.545Z,7.27
2018-01-15T21:49:10.147Z,7.83
2018-01-15T21:51:37.723Z,4.93
2018-01-15T21:54:05.273Z,6.83
2018-01-15T21:56:32.848Z,6.80
2018-01-15T21:59:00.411Z,6.13
2018-01-15T22:01:27.919Z,5.67
2018-01-15T22:03:56.261Z,6.00
2018-01-15T22:06:23.783Z,8.07
2018-01-15T22:08:51.323Z,6.00
2018-01-15T22:11:19.614Z,6.53
2018-01-15T22:13:47.179Z,6.40
2018-01-15T22:16:14.770Z,4.83
2018-01-15T22:18:42.306Z,6.30
2018-01-15T22:21:09.835Z,6.50
2018-01-15T22:23:37.469Z,5.57
2018-01-15T22:26:05.208Z,5.83
2018-01-15T22:28:32.768Z,8.20
2018-01-15T22:31:00.324Z,5.00
2018-01-15T22:33:27.901Z,5.40
2018-01-15T22:35:55.449Z,4.30
2018-01-15T22:38:23.024Z,3.93
2018-01-15T22:40:50.559Z,6.40
2018-01-15T22:43:18.107Z,4.00
2018-01-15T22:45:45.660Z,4.23
2018-01-15T22:48:13.957Z,5.03
2018-01-15T22:50:41.504Z,3.93
2018-01-15T22:53:09.812Z,6.50
2018-01-15T22:55:37.344Z,3.90
2018-01-15T22:58:05.646Z,4.50
2018-01-15T23:00:33.208Z,3.97
2018-01-15T23:03:00.728Z,4.43
2018-01-15T23:05:29.047Z,4.97
2018-01-15T23:07:56.589Z,3.50
2018-01-15T23:10:24.139Z,3.80
2018-01-15T23:12:51.687Z,5.23
2018-01-15T23:15:19.972Z,4.43
2018-01-15T23:17:48.423Z,4.10
2018-01-15T23:20:16.041Z,4.20
2018-01-15T23:22:43.630Z,3.33
2018-01-15T23:25:11.159Z,3.37
2018-01-15T23:27:38.697Z,3.20
2018-01-15T23:30:07.001Z,4.93
2018-01-15T23:32:34.565Z,4.17
2018-01-15T23:35:02.084Z,4.50
2018-01-15T23:37:29.620Z,3.70
2018-01-15T23:39:57.157Z,2.97
2018-01-15T23:42:24.806Z,3.83
2018-01-15T23:44:52.328Z,3.50
2018-01-15T23:47:20.644Z,3.27
2018-01-15T23:49:48.214Z,3.30
2018-01-15T23:52:15.757Z,3.50
2018-01-15T23:54:43.331Z,4.50
2018-01-15T23:57:10.885Z,3.60
2018-01-15T23:59:38.410Z,3.07
